Time;durP1;ratioP1;P1;durP2;ratioP2;P2;SDS_P1;SDS_P2;PMS_P1;PMS_P2;Temp;Humidity;BMP_temperature;BMP_pressure;BME280_temperature;BME280_humidity;BME280_pressure;Samples;Min_cycle;Max_cycle;Signal;HPM_P1;HPM_P2
2023/10/19 00:00:41;;;;;;;5.90;5.30;;;12.20;99.90;;;;;;4970279;28;20573;-64
2023/10/19 00:03:07;;;;;;;6.80;6.20;;;12.20;99.90;;;;;;4972119;28;20435;-64
2023/10/19 00:05:33;;;;;;;7.30;6.10;;;12.30;99.90;;;;;;4970898;28;21238;-64
2023/10/19 00:08:02;;;;;;;6.17;5.60;;;12.30;99.90;;;;;;4964155;28;20188;-64
2023/10/19 00:10:34;;;;;;;6.87;6.17;;;12.30;99.90;;;;;;4965901;28;20458;-64
2023/10/19 00:13:03;;;;;;;6.47;5.87;;;12.30;99.90;;;;;;4965390;28;20428;-64
2023/10/19 00:15:44;;;;;;;5.83;5.33;;;12.40;99.90;;;;;;4966393;28;20434;-64
2023/10/19 00:20:52;;;;;;;6.73;6.10;;;12.40;99.90;;;;;;4965048;28;21173;-64
2023/10/19 00:23:28;;;;;;;6.50;5.90;;;12.50;99.90;;;;;;4972346;28;20597;-64
2023/10/19 00:25:56;;;;;;;9.20;6.47;;;12.40;99.90;;;;;;4965316;28;20443;-64
2023/10/19 00:28:26;;;;;;;8.03;6.50;;;12.50;99.90;;;;;;4967772;28;20844;-64
2023/10/19 00:30:53;;;;;;;7.53;6.73;;;12.50;99.90;;;;;;4964739;28;20463;-64
2023/10/19 00:33:26;;;;;;;7.33;6.60;;;12.50;99.90;;;;;;4966718;28;20776;-64
2023/10/19 00:35:58;;;;;;;6.70;6.10;;;12.50;99.90;;;;;;4963343;28;20439;-64
2023/10/19 00:38:28;;;;;;;6.93;6.33;;;12.50;99.90;;;;;;4966536;28;20929;-63
2023/10/19 00:40:58;;;;;;;7.13;6.10;;;12.50;99.90;;;;;;4964720;28;20471;-64
2023/10/19 00:43:43;;;;;;;10.03;7.30;;;12.60;99.90;;;;;;4969965;28;20541;-64
2023/10/19 00:48:53;;;;;;;8.53;7.63;;;12.70;99.90;;;;;;4965450;28;20435;-64
2023/10/19 00:54:01;;;;;;;7.20;6.50;;;12.70;99.90;;;;;;4965066;28;20434;-64
2023/10/19 00:56:31;;;;;;;7.80;6.80;;;12.70;99.90;;;;;;4966043;28;21279;-64
2023/10/19 00:59:00;;;;;;;6.17;5.67;;;12.70;99.90;;;;;;4968564;28;20436;-64
2023/10/19 01:01:29;;;;;;;8.20;6.50;;;12.70;99.90;;;;;;4961138;28;20447;-64
2023/10/19 01:03:58;;;;;;;6.67;6.10;;;12.70;99.90;;;;;;4974563;28;20493;-64
2023/10/19 01:06:25;;;;;;;7.03;6.43;;;12.70;99.90;;;;;;4969706;28;20945;-64
2023/10/19 01:08:52;;;;;;;6.87;6.03;;;12.70;99.90;;;;;;4972516;28;20428;-64
2023/10/19 01:11:20;;;;;;;6.63;6.00;;;12.70;99.90;;;;;;4969721;28;20523;-64
2023/10/19 01:13:48;;;;;;;7.17;6.47;;;12.70;99.90;;;;;;4967889;28;20460;-64
2023/10/19 01:16:22;;;;;;;6.70;6.00;;;12.70;99.90;;;;;;4969626;28;20463;-64
2023/10/19 01:18:59;;;;;;;6.77;6.17;;;12.80;99.90;;;;;;4972485;28;20439;-64
2023/10/19 01:21:37;;;;;;;7.57;6.50;;;12.80;99.90;;;;;;4969413;28;20496;-63
2023/10/19 01:24:09;;;;;;;7.10;6.47;;;12.80;99.90;;;;;;4968340;28;20448;-64
2023/10/19 01:26:38;;;;;;;6.30;5.63;;;12.80;99.90;;;;;;4967340;28;20427;-64
2023/10/19 01:29:27;;;;;;;7.20;6.10;;;12.80;99.90;;;;;;4977678;28;21046;-64
2023/10/19 01:31:56;;;;;;;7.50;6.60;;;12.90;99.90;;;;;;4966302;28;20436;-64
2023/10/19 01:34:22;;;;;;;7.33;6.37;;;12.90;99.90;;;;;;4969989;28;20798;-64
2023/10/19 01:36:50;;;;;;;7.23;6.23;;;13.00;99.90;;;;;;4965738;28;20478;-64
2023/10/19 01:39:18;;;;;;;6.50;5.80;;;13.00;99.90;;;;;;4968423;28;20476;-64
2023/10/19 01:41:45;;;;;;;7.00;6.40;;;13.00;99.90;;;;;;4973007;28;20440;-64
2023/10/19 01:44:15;;;;;;;6.60;5.97;;;13.00;99.90;;;;;;4966934;28;20444;-64
2023/10/19 01:46:43;;;;;;;8.37;6.47;;;13.10;99.90;;;;;;4967475;28;20443;-64
2023/10/19 01:49:09;;;;;;;7.10;6.10;;;13.20;99.90;;;;;;4966493;28;20442;-64
2023/10/19 01:51:38;;;;;;;7.30;6.60;;;13.10;99.90;;;;;;4989214;28;20972;-64
2023/10/19 01:54:06;;;;;;;7.50;6.57;;;13.20;99.90;;;;;;4970447;28;20957;-64
2023/10/19 01:56:35;;;;;;;10.27;7.30;;;13.20;99.90;;;;;;4967555;28;20533;-63
2023/10/19 01:59:01;;;;;;;8.40;7.47;;;13.30;99.90;;;;;;4967393;28;21171;-64
2023/10/19 02:03:58;;;;;;;9.40;7.27;;;13.20;99.90;;;;;;4970475;28;20502;-64
2023/10/19 02:06:36;;;;;;;8.97;7.00;;;13.20;99.90;;;;;;4969121;28;20270;-64
2023/10/19 02:09:21;;;;;;;7.50;6.60;;;13.20;99.90;;;;;;4966962;28;20442;-64
2023/10/19 02:11:58;;;;;;;8.13;6.30;;;13.20;99.90;;;;;;4971307;28;20432;-64
2023/10/19 02:14:26;;;;;;;6.67;6.10;;;13.30;99.90;;;;;;4969070;28;20445;-64
2023/10/19 02:16:56;;;;;;;6.87;6.00;;;13.30;99.90;;;;;;4966224;28;20442;-64
2023/10/19 02:19:24;;;;;;;6.40;5.80;;;13.30;99.90;;;;;;4966599;28;20538;-64
2023/10/19 02:22:08;;;;;;;5.87;5.27;;;13.30;99.90;;;;;;4965899;28;20440;-64
2023/10/19 02:24:34;;;;;;;6.40;5.47;;;13.40;99.90;;;;;;4966910;28;20941;-64
2023/10/19 02:27:02;;;;;;;5.70;5.10;;;13.40;99.90;;;;;;4966311;28;20559;-64
2023/10/19 02:29:28;;;;;;;5.40;4.77;;;13.50;99.90;;;;;;4981598;28;20197;-64
2023/10/19 02:31:55;;;;;;;8.03;4.93;;;13.50;99.90;;;;;;4973950;28;20436;-64
2023/10/19 02:34:22;;;;;;;7.00;5.17;;;13.50;99.90;;;;;;4968716;28;20713;-64
2023/10/19 02:36:48;;;;;;;5.50;5.00;;;13.60;99.90;;;;;;4966231;28;20544;-64
2023/10/19 02:39:17;;;;;;;5.20;4.30;;;13.60;99.90;;;;;;4968449;28;20479;-64
2023/10/19 02:41:48;;;;;;;5.10;4.60;;;13.60;99.90;;;;;;4964339;28;20623;-64
2023/10/19 02:46:42;;;;;;;5.00;4.43;;;13.70;99.90;;;;;;4966393;28;21222;-64
2023/10/19 02:49:11;;;;;;;4.73;4.23;;;13.70;99.90;;;;;;4966819;28;20522;-64
2023/10/19 02:51:45;;;;;;;3.47;3.07;;;13.70;99.90;;;;;;4964434;28;20885;-65
2023/10/19 02:54:22;;;;;;;4.73;3.10;;;13.70;99.90;;;;;;4967471;28;20432;-64
2023/10/19 02:56:58;;;;;;;4.30;3.43;;;13.70;99.90;;;;;;4964181;28;20467;-64
2023/10/19 02:59:26;;;;;;;3.30;3.00;;;13.70;99.90;;;;;;4967777;28;20974;-64
2023/10/19 03:02:06;;;;;;;3.57;3.23;;;13.80;99.90;;;;;;4963851;28;20432;-63
2023/10/19 03:04:35;;;;;;;5.70;3.77;;;13.80;99.90;;;;;;4971031;28;20431;-64
2023/10/19 03:07:05;;;;;;;3.10;2.80;;;13.80;99.90;;;;;;4965167;28;20482;-64
2023/10/19 03:09:33;;;;;;;3.60;2.53;;;13.80;99.90;;;;;;4966802;28;20530;-64
2023/10/19 03:12:04;;;;;;;3.40;2.20;;;13.90;99.90;;;;;;4964765;28;20511;-64
2023/10/19 03:14:30;;;;;;;3.33;2.60;;;13.90;99.90;;;;;;4967661;28;20467;-64
2023/10/19 03:16:57;;;;;;;2.43;2.23;;;13.90;99.90;;;;;;4970464;28;20431;-64
2023/10/19 03:19:25;;;;;;;5.03;2.40;;;13.90;99.90;;;;;;4967540;28;21067;-64
2023/10/19 03:21:50;;;;;;;2.70;2.10;;;13.90;99.90;;;;;;4965335;28;20432;-64
2023/10/19 03:24:35;;;;;;;2.83;2.17;;;13.90;99.90;;;;;;4973857;28;21381;-64
2023/10/19 03:27:12;;;;;;;3.90;2.30;;;13.90;99.90;;;;;;4964562;28;20444;-64
2023/10/19 03:29:39;;;;;;;3.27;2.40;;;14.00;99.90;;;;;;4974942;28;20517;-65
2023/10/19 03:32:08;;;;;;;5.97;2.53;;;14.00;99.90;;;;;;4965140;28;20830;-64
2023/10/19 03:34:35;;;;;;;2.83;2.53;;;14.00;99.90;;;;;;4966719;28;20442;-64
2023/10/19 03:37:05;;;;;;;2.97;2.67;;;14.00;99.90;;;;;;4970982;28;20445;-64
2023/10/19 03:39:37;;;;;;;3.53;2.70;;;14.00;99.90;;;;;;4965940;28;20470;-64
2023/10/19 03:42:06;;;;;;;3.40;3.10;;;14.00;99.90;;;;;;4965189;28;20450;-64
2023/10/19 03:44:50;;;;;;;;;;;;;;;;;;;;;
2023/10/19 03:47:19;;;;;;;3.50;2.57;;;14.10;99.90;;;;;;4972216;28;20479;-64
2023/10/19 03:49:46;;;;;;;5.20;2.70;;;14.10;99.90;;;;;;4965250;28;20941;-64
2023/10/19 03:54:39;;;;;;;3.20;2.53;;;14.10;99.90;;;;;;4965817;28;20489;-64
2023/10/19 03:57:11;;;;;;;2.70;2.50;;;14.10;99.90;;;;;;4965127;28;20482;-63
2023/10/19 03:59:40;;;;;;;2.63;2.40;;;14.10;99.90;;;;;;4965417;28;20475;-64
2023/10/19 04:02:13;;;;;;;3.17;2.87;;;14.10;99.90;;;;;;4963486;28;20436;-64
2023/10/19 04:04:43;;;;;;;2.83;2.63;;;14.10;99.90;;;;;;4973828;28;20517;-64
2023/10/19 04:07:31;;;;;;;2.30;2.10;;;14.10;99.90;;;;;;4967684;28;20482;-64
2023/10/19 04:12:36;;;;;;;1.90;1.80;;;14.10;99.90;;;;;;4964970;28;20428;-64
2023/10/19 04:17:36;;;;;;;2.77;1.70;;;14.10;99.90;;;;;;4965584;28;20431;-64
2023/10/19 04:20:26;;;;;;;3.00;2.10;;;14.10;99.90;;;;;;4964364;28;20579;-64
2023/10/19 04:22:50;;;;;;;3.27;1.73;;;14.10;99.90;;;;;;4965017;28;20189;-64
2023/10/19 04:25:18;;;;;;;2.00;1.80;;;14.10;99.90;;;;;;4965931;28;20843;-64
2023/10/19 04:27:45;;;;;;;2.10;1.70;;;14.10;99.90;;;;;;4965235;28;20451;-65
2023/10/19 04:30:21;;;;;;;1.90;1.80;;;14.10;99.90;;;;;;4975224;28;20945;-64
2023/10/19 04:32:49;;;;;;;4.40;1.87;;;14.10;99.90;;;;;;4964830;28;20467;-64
2023/10/19 04:35:21;;;;;;;3.43;2.60;;;14.10;99.90;;;;;;4976922;28;20450;-64
2023/10/19 04:37:51;;;;;;;2.43;1.60;;;14.10;99.90;;;;;;4970325;28;20526;-64
2023/10/19 04:40:18;;;;;;;2.47;1.80;;;14.10;99.90;;;;;;4969137;28;20494;-64
2023/10/19 04:42:45;;;;;;;2.57;1.80;;;14.10;99.90;;;;;;4968461;28;20790;-64
2023/10/19 04:45:12;;;;;;;2.50;2.30;;;14.10;99.90;;;;;;4969399;28;20444;-64
2023/10/19 04:47:38;;;;;;;2.33;2.13;;;14.10;99.90;;;;;;4968935;28;20466;-64
2023/10/19 04:50:10;;;;;;;8.30;2.47;;;14.10;99.90;;;;;;4968262;28;20424;-64
2023/10/19 04:52:36;;;;;;;3.90;1.47;;;14.10;99.90;;;;;;4968834;28;20432;-65
2023/10/19 04:55:02;;;;;;;3.03;1.90;;;14.10;99.90;;;;;;4966673;28;20454;-64
2023/10/19 04:57:28;;;;;;;2.00;1.63;;;14.10;99.90;;;;;;4969401;28;20438;-64
2023/10/19 04:59:55;;;;;;;4.83;2.03;;;14.10;99.90;;;;;;4967587;28;20242;-64
2023/10/19 05:02:21;;;;;;;2.87;2.07;;;14.10;99.90;;;;;;4967483;28;21380;-64
2023/10/19 05:04:47;;;;;;;2.80;1.77;;;14.10;99.90;;;;;;4977133;28;20455;-64
2023/10/19 05:07:16;;;;;;;1.93;1.70;;;14.20;99.90;;;;;;4985071;28;20606;-64
2023/10/19 05:09:42;;;;;;;2.30;2.10;;;14.10;99.90;;;;;;4981831;28;20562;-64
2023/10/19 05:12:09;;;;;;;5.33;2.33;;;14.10;99.90;;;;;;4978997;28;20934;-64
2023/10/19 05:14:39;;;;;;;2.63;1.73;;;14.20;99.90;;;;;;4986298;28;20447;-64
2023/10/19 05:17:05;;;;;;;2.27;1.97;;;14.10;99.90;;;;;;4968196;28;20428;-64
2023/10/19 05:19:32;;;;;;;4.87;2.33;;;14.10;99.90;;;;;;4967883;28;20509;-64
2023/10/19 05:21:59;;;;;;;3.43;2.20;;;14.20;99.90;;;;;;4966852;28;20447;-64
2023/10/19 05:24:25;;;;;;;1.97;1.70;;;14.10;99.90;;;;;;4968586;28;20846;-65
2023/10/19 05:26:53;;;;;;;2.50;1.97;;;14.10;99.90;;;;;;4968211;28;20428;-65
2023/10/19 05:29:19;;;;;;;2.70;2.33;;;14.10;99.90;;;;;;4977924;28;20175;-64
2023/10/19 05:31:45;;;;;;;3.20;1.73;;;14.20;99.90;;;;;;4967854;28;20972;-64
2023/10/19 05:34:11;;;;;;;4.00;2.30;;;14.20;99.90;;;;;;4968740;28;20432;-64
2023/10/19 05:36:36;;;;;;;2.63;2.13;;;14.20;99.90;;;;;;4967006;28;20467;-64
2023/10/19 05:39:04;;;;;;;2.67;2.10;;;14.20;99.90;;;;;;4967111;28;20185;-63
2023/10/19 05:41:31;;;;;;;3.70;2.07;;;14.20;99.90;;;;;;4967706;28;20172;-65
2023/10/19 05:43:57;;;;;;;2.73;2.43;;;14.20;99.90;;;;;;4965529;28;20510;-64
2023/10/19 05:46:24;;;;;;;3.30;2.00;;;14.20;99.90;;;;;;4968175;28;20431;-64
2023/10/19 05:48:51;;;;;;;3.87;2.03;;;14.20;99.90;;;;;;4967767;28;20463;-64
2023/10/19 05:51:17;;;;;;;2.00;1.80;;;14.20;99.90;;;;;;4972053;28;21239;-64
2023/10/19 05:53:44;;;;;;;2.80;1.90;;;14.10;99.90;;;;;;4975444;28;20424;-64
2023/10/19 05:56:10;;;;;;;5.10;1.90;;;14.10;99.90;;;;;;4973042;28;20444;-64
2023/10/19 05:58:36;;;;;;;2.40;2.20;;;14.10;99.90;;;;;;4964690;28;20431;-64
2023/10/19 06:01:02;;;;;;;3.10;1.70;;;14.10;99.90;;;;;;4966408;28;21405;-64
2023/10/19 06:03:28;;;;;;;2.20;2.00;;;14.10;99.90;;;;;;4972538;28;20315;-64
2023/10/19 06:05:56;;;;;;;5.97;2.50;;;14.00;99.90;;;;;;4978858;28;20187;-65
2023/10/19 06:08:22;;;;;;;2.40;2.13;;;14.00;99.90;;;;;;4976358;28;20808;-65
2023/10/19 06:10:54;;;;;;;3.90;2.10;;;14.00;99.90;;;;;;4973130;28;20822;-65
2023/10/19 06:13:21;;;;;;;3.13;1.97;;;14.00;99.90;;;;;;4968748;28;20432;-65
2023/10/19 06:15:48;;;;;;;2.50;2.30;;;14.00;99.90;;;;;;4964486;28;20438;-64
2023/10/19 06:18:14;;;;;;;3.03;2.30;;;14.00;99.90;;;;;;4975843;28;20419;-65
2023/10/19 06:20:44;;;;;;;2.03;1.73;;;14.00;99.90;;;;;;4979512;28;20933;-65
2023/10/19 06:23:11;;;;;;;2.77;1.90;;;14.00;99.90;;;;;;4976011;28;20265;-65
2023/10/19 06:25:37;;;;;;;2.50;1.87;;;14.10;99.90;;;;;;4978462;28;20450;-65
2023/10/19 06:28:04;;;;;;;3.47;2.40;;;14.00;99.90;;;;;;4987683;28;20423;-65
2023/10/19 06:30:30;;;;;;;4.47;2.30;;;14.10;99.90;;;;;;4985639;28;20443;-65
2023/10/19 06:33:01;;;;;;;3.90;3.10;;;14.10;99.90;;;;;;4983918;28;20975;-65
2023/10/19 06:35:28;;;;;;;3.00;2.20;;;14.10;99.90;;;;;;4988570;28;20233;-62
2023/10/19 06:37:55;;;;;;;4.73;2.50;;;14.10;99.90;;;;;;4988967;28;20439;-65
2023/10/19 06:40:22;;;;;;;2.80;2.30;;;14.10;99.90;;;;;;4989685;28;20505;-65
2023/10/19 06:42:49;;;;;;;2.57;2.37;;;14.10;99.90;;;;;;4988572;28;20481;-65
2023/10/19 06:45:15;;;;;;;2.67;2.47;;;14.00;99.90;;;;;;4990092;28;20466;-65
2023/10/19 06:47:49;;;;;;;3.40;2.37;;;14.10;99.90;;;;;;4995470;28;20803;-65
2023/10/19 06:50:20;;;;;;;5.20;2.50;;;14.00;99.90;;;;;;4988080;28;20502;-63
2023/10/19 06:52:48;;;;;;;3.23;2.50;;;14.00;99.90;;;;;;4987564;28;21050;-65
2023/10/19 06:55:16;;;;;;;2.60;2.40;;;14.00;99.90;;;;;;4989499;28;20443;-65
2023/10/19 06:57:43;;;;;;;3.07;2.77;;;14.00;99.90;;;;;;4987897;28;20471;-65
2023/10/19 07:00:27;;;;;;;2.87;2.60;;;14.10;99.90;;;;;;4989293;28;20560;-65
2023/10/19 07:02:55;;;;;;;4.20;2.50;;;14.10;99.90;;;;;;4986565;28;20431;-65
2023/10/19 07:05:23;;;;;;;3.03;2.73;;;14.10;99.90;;;;;;4988710;28;20434;-65
2023/10/19 07:07:51;;;;;;;4.10;2.73;;;14.10;99.90;;;;;;4989236;28;20438;-65
2023/10/19 07:10:18;;;;;;;2.30;2.10;;;14.10;99.90;;;;;;4987862;28;20442;-65
2023/10/19 07:12:46;;;;;;;3.50;2.87;;;14.10;99.90;;;;;;4988809;28;20454;-65
2023/10/19 07:15:18;;;;;;;5.23;2.80;;;14.10;99.90;;;;;;4988845;28;20470;-64
2023/10/19 07:17:46;;;;;;;5.13;2.63;;;14.10;99.90;;;;;;4988619;28;20903;-65
2023/10/19 07:23:18;;;;;;;3.93;2.30;;;14.10;99.90;;;;;;4967890;28;21281;-65
2023/10/19 07:25:47;;;;;;;2.37;2.17;;;14.10;99.90;;;;;;4988181;28;20434;-65
2023/10/19 07:28:14;;;;;;;2.83;2.23;;;14.10;99.90;;;;;;4986943;28;20442;-65
2023/10/19 07:30:41;;;;;;;3.03;2.53;;;14.10;99.90;;;;;;4987413;28;20434;-64
2023/10/19 07:33:09;;;;;;;4.67;2.73;;;14.20;99.90;;;;;;4986247;28;20459;-65
2023/10/19 07:35:38;;;;;;;4.97;2.20;;;14.20;99.90;;;;;;4983437;28;20450;-65
2023/10/19 07:38:07;;;;;;;3.50;2.40;;;14.20;99.90;;;;;;4986168;28;20426;-65
2023/10/19 07:40:33;;;;;;;3.73;2.23;;;14.20;99.90;;;;;;4986878;28;20482;-65
2023/10/19 07:42:59;;;;;;;2.90;2.53;;;14.20;99.90;;;;;;4985969;28;21037;-65
2023/10/19 07:45:25;;;;;;;3.80;2.20;;;14.20;99.90;;;;;;4989650;28;20438;-65
2023/10/19 07:47:51;;;;;;;4.63;2.77;;;14.20;99.90;;;;;;4988165;28;20186;-65
2023/10/19 07:50:16;;;;;;;2.10;1.90;;;14.20;99.90;;;;;;4987277;28;20431;-65
2023/10/19 07:52:53;;;;;;;3.70;2.10;;;14.30;99.90;;;;;;4987722;28;20187;-65
2023/10/19 07:55:22;;;;;;;2.87;2.50;;;14.20;99.90;;;;;;4989600;28;20194;-64
2023/10/19 07:57:50;;;;;;;3.40;2.60;;;14.20;99.90;;;;;;4987967;28;20430;-65
2023/10/19 08:00:17;;;;;;;5.50;2.67;;;14.30;99.90;;;;;;4987530;28;20470;-65
2023/10/19 08:02:46;;;;;;;4.50;2.37;;;14.30;99.90;;;;;;4986996;28;20442;-65
2023/10/19 08:05:12;;;;;;;2.70;2.50;;;14.30;99.90;;;;;;4988530;28;20437;-65
2023/10/19 08:07:46;;;;;;;4.20;2.83;;;14.30;99.90;;;;;;4987574;28;20437;-65
2023/10/19 08:10:15;;;;;;;2.83;2.20;;;14.30;99.90;;;;;;4987506;28;20431;-64
2023/10/19 08:12:42;;;;;;;4.00;2.33;;;14.30;99.90;;;;;;4988500;28;20434;-65
2023/10/19 08:15:12;;;;;;;3.43;2.40;;;14.30;99.90;;;;;;4991930;28;20422;-65
2023/10/19 08:17:39;;;;;;;2.73;2.43;;;14.30;99.90;;;;;;4992311;28;20437;-65
2023/10/19 08:20:09;;;;;;;3.43;2.80;;;14.30;99.90;;;;;;4991447;28;20903;-64
2023/10/19 08:22:39;;;;;;;2.83;2.57;;;14.40;99.90;;;;;;4992320;28;20433;-64
2023/10/19 08:25:11;;;;;;;4.80;2.53;;;14.50;99.90;;;;;;4992007;28;20443;-64
2023/10/19 08:27:39;;;;;;;2.60;2.40;;;14.50;99.90;;;;;;4991888;28;20437;-65
2023/10/19 08:30:08;;;;;;;3.10;2.43;;;14.50;99.90;;;;;;4991302;28;20482;-64
2023/10/19 08:32:35;;;;;;;2.10;2.00;;;14.60;99.90;;;;;;4992018;28;20481;-64
2023/10/19 08:35:02;;;;;;;2.53;2.33;;;14.60;99.90;;;;;;4992848;28;20549;-65
2023/10/19 08:37:28;;;;;;;3.73;2.80;;;14.70;99.90;;;;;;4992467;28;20462;-64
2023/10/19 08:39:54;;;;;;;4.43;2.30;;;14.70;99.90;;;;;;4991551;28;20486;-64
2023/10/19 08:42:20;;;;;;;3.33;2.40;;;14.70;99.90;;;;;;4991917;28;20484;-64
2023/10/19 08:44:46;;;;;;;3.03;2.67;;;14.70;99.90;;;;;;5007197;28;20290;-64
2023/10/19 08:47:12;;;;;;;3.43;2.37;;;14.70;99.90;;;;;;4991018;28;20462;-64
2023/10/19 08:49:37;;;;;;;3.40;2.13;;;14.80;99.90;;;;;;4991483;28;20588;-65
2023/10/19 08:52:05;;;;;;;4.43;2.90;;;14.80;99.90;;;;;;4991413;28;20199;-64
2023/10/19 08:54:33;;;;;;;2.83;2.33;;;14.80;99.90;;;;;;4992159;28;20183;-64
2023/10/19 08:56:59;;;;;;;3.63;2.47;;;14.80;99.90;;;;;;4991129;28;20488;-64
2023/10/19 08:59:26;;;;;;;3.53;2.63;;;14.90;99.90;;;;;;4991260;28;20477;-64
2023/10/19 09:02:01;;;;;;;4.40;2.60;;;14.90;99.90;;;;;;4989504;28;21495;-64
2023/10/19 09:04:26;;;;;;;4.40;2.00;;;14.90;99.90;;;;;;4992132;28;21119;-65
2023/10/19 09:06:55;;;;;;;13.13;3.43;;;15.00;99.90;;;;;;4991211;28;20550;-65
2023/10/19 09:09:21;;;;;;;4.20;2.63;;;15.10;99.90;;;;;;4991147;28;20199;-64
2023/10/19 09:11:48;;;;;;;4.27;2.50;;;15.10;99.90;;;;;;4991592;28;21223;-64
2023/10/19 09:14:30;;;;;;;3.40;2.67;;;15.10;99.90;;;;;;4990273;28;20434;-64
2023/10/19 09:16:56;;;;;;;3.20;2.30;;;15.20;99.90;;;;;;4991834;28;20423;-64
2023/10/19 09:19:47;;;;;;;3.50;2.57;;;15.20;99.90;;;;;;4990132;28;20472;-64
2023/10/19 09:22:19;;;;;;;8.70;2.43;;;15.20;99.90;;;;;;4989606;28;20932;-64
2023/10/19 09:24:53;;;;;;;5.03;2.50;;;15.30;99.90;;;;;;4991007;28;20531;-65
2023/10/19 09:27:22;;;;;;;3.53;2.30;;;15.30;99.90;;;;;;4990530;28;20513;-64
2023/10/19 09:29:49;;;;;;;2.83;2.63;;;15.30;99.90;;;;;;4991114;28;20457;-65
2023/10/19 09:32:16;;;;;;;4.80;2.80;;;15.40;99.90;;;;;;4989621;28;20443;-64
2023/10/19 09:34:44;;;;;;;3.57;2.33;;;15.40;99.90;;;;;;4989851;28;20423;-64
2023/10/19 09:37:11;;;;;;;4.40;2.90;;;15.40;99.90;;;;;;4990542;28;20761;-64
2023/10/19 09:39:37;;;;;;;4.80;2.60;;;15.40;99.90;;;;;;4990266;28;20493;-64
2023/10/19 09:42:11;;;;;;;3.77;2.50;;;15.50;99.90;;;;;;4990540;28;20431;-64
2023/10/19 09:44:45;;;;;;;4.10;2.80;;;15.50;99.90;;;;;;4991358;28;20810;-65
2023/10/19 09:47:14;;;;;;;3.47;2.47;;;15.50;99.90;;;;;;4990360;28;20480;-64
2023/10/19 09:49:43;;;;;;;3.53;2.93;;;15.50;99.90;;;;;;4991167;28;20432;-65
2023/10/19 09:52:11;;;;;;;2.83;2.30;;;15.60;99.90;;;;;;4989592;28;21010;-65
2023/10/19 09:54:54;;;;;;;3.80;2.77;;;15.60;99.90;;;;;;4990777;28;20435;-64
2023/10/19 09:57:31;;;;;;;3.00;2.37;;;15.60;99.90;;;;;;4990022;28;20421;-64
2023/10/19 10:00:11;;;;;;;4.67;3.10;;;15.60;99.90;;;;;;4989666;28;20971;-64
2023/10/19 10:02:42;;;;;;;4.07;2.70;;;15.70;99.90;;;;;;4989278;28;20417;-65
2023/10/19 10:05:42;;;;;;;5.27;2.93;;;15.80;99.90;;;;;;4989951;28;20937;-64
2023/10/19 10:08:17;;;;;;;6.10;2.17;;;15.80;99.90;;;;;;4989751;28;20529;-64
2023/10/19 10:10:47;;;;;;;4.20;2.90;;;15.90;99.90;;;;;;4989606;28;20872;-65
2023/10/19 10:13:44;;;;;;;3.47;2.50;;;15.90;99.90;;;;;;4989623;28;20580;-63
2023/10/19 10:16:14;;;;;;;3.27;2.60;;;15.90;99.90;;;;;;4976110;28;20472;-65
2023/10/19 10:18:41;;;;;;;4.50;2.70;;;16.00;99.90;;;;;;4989983;28;20438;-65
2023/10/19 10:21:16;;;;;;;4.00;2.73;;;15.90;99.90;;;;;;4989566;28;20509;-65
2023/10/19 10:23:52;;;;;;;3.70;2.60;;;16.00;99.90;;;;;;4990694;28;20440;-65
2023/10/19 10:26:25;;;;;;;3.30;2.77;;;16.00;99.90;;;;;;4985836;28;20429;-65
2023/10/19 10:29:11;;;;;;;7.73;2.83;;;16.10;99.90;;;;;;4988873;28;20607;-64
2023/10/19 10:31:44;;;;;;;2.37;2.07;;;16.20;99.90;;;;;;4986485;28;20439;-65
2023/10/19 10:34:11;;;;;;;4.93;3.20;;;16.40;99.90;;;;;;4988778;28;20446;-64
2023/10/19 10:37:08;;;;;;;3.73;2.80;;;16.50;99.90;;;;;;4988631;28;20442;-64
2023/10/19 10:39:36;;;;;;;4.57;2.37;;;16.70;99.90;;;;;;4983082;28;20509;-64
2023/10/19 10:42:07;;;;;;;5.20;2.50;;;16.80;99.90;;;;;;4987526;28;20546;-64
2023/10/19 10:44:43;;;;;;;3.90;2.17;;;16.90;99.90;;;;;;4986593;28;20447;-65
2023/10/19 10:47:10;;;;;;;3.87;1.73;;;16.90;99.90;;;;;;4986274;28;20430;-65
2023/10/19 10:49:56;;;;;;;3.07;2.23;;;17.00;99.90;;;;;;4987258;28;20423;-65
2023/10/19 10:52:29;;;;;;;5.67;2.23;;;17.10;99.90;;;;;;4987267;28;20865;-64
2023/10/19 10:54:59;;;;;;;3.97;2.13;;;17.10;99.90;;;;;;4987975;28;20792;-65
2023/10/19 10:57:34;;;;;;;5.17;2.10;;;17.20;99.90;;;;;;4987182;28;20485;-64
2023/10/19 11:00:04;;;;;;;3.63;2.03;;;17.30;99.90;;;;;;4988383;28;20473;-65
2023/10/19 11:02:29;;;;;;;5.50;2.13;;;17.40;99.90;;;;;;4987501;28;20434;-64
2023/10/19 11:04:55;;;;;;;4.10;1.87;;;17.40;99.90;;;;;;4989755;28;20481;-65
2023/10/19 11:07:21;;;;;;;7.57;1.83;;;17.50;99.90;;;;;;4989086;28;20190;-64
2023/10/19 11:09:47;;;;;;;4.80;1.70;;;17.50;99.90;;;;;;4988749;28;20623;-65
2023/10/19 11:12:15;;;;;;;4.50;2.60;;;17.50;99.90;;;;;;4989577;28;20209;-65
2023/10/19 11:14:53;;;;;;;2.57;1.80;;;17.40;99.90;;;;;;4989619;28;20441;-65
2023/10/19 11:17:19;;;;;;;4.67;2.00;;;17.40;99.90;;;;;;4989308;28;20537;-64
2023/10/19 11:19:45;;;;;;;4.77;2.10;;;17.40;99.90;;;;;;4988451;28;20855;-65
2023/10/19 11:22:11;;;;;;;4.87;1.90;;;17.40;99.90;;;;;;4989071;28;20434;-65
2023/10/19 11:24:39;;;;;;;5.50;1.73;;;17.40;99.90;;;;;;4988931;28;20222;-65
2023/10/19 11:27:10;;;;;;;4.53;2.30;;;17.40;99.90;;;;;;4988536;28;20480;-64
2023/10/19 11:29:35;;;;;;;3.07;1.63;;;17.40;99.90;;;;;;4987628;28;20998;-65
2023/10/19 11:32:02;;;;;;;3.57;1.63;;;17.40;99.90;;;;;;4988072;28;20446;-65
2023/10/19 11:34:29;;;;;;;2.83;2.20;;;17.40;99.90;;;;;;4988517;28;20266;-65
2023/10/19 11:36:59;;;;;;;3.60;1.80;;;17.40;99.90;;;;;;4989434;28;20431;-64
2023/10/19 11:39:26;;;;;;;8.77;2.53;;;17.30;99.90;;;;;;4988644;28;20767;-65
2023/10/19 11:41:53;;;;;;;4.70;2.13;;;17.40;99.90;;;;;;4988685;28;20446;-65
2023/10/19 11:44:19;;;;;;;4.30;2.13;;;17.40;99.90;;;;;;4988356;28;20450;-65
2023/10/19 11:46:45;;;;;;;5.73;2.20;;;17.40;99.90;;;;;;4988280;28;20435;-65
2023/10/19 11:49:11;;;;;;;5.63;2.17;;;17.40;99.90;;;;;;4988052;28;20472;-64
2023/10/19 11:51:37;;;;;;;11.30;4.00;;;17.50;99.90;;;;;;4988679;28;20422;-64
2023/10/19 11:54:06;;;;;;;4.47;1.93;;;17.60;99.90;;;;;;4988910;28;20191;-64
2023/10/19 11:56:32;;;;;;;3.07;1.57;;;17.80;99.90;;;;;;5002822;28;20509;-64
2023/10/19 11:58:57;;;;;;;5.93;2.10;;;18.00;99.90;;;;;;4988116;28;20484;-64
2023/10/19 12:01:25;;;;;;;5.00;2.27;;;18.20;99.90;;;;;;4987546;28;20479;-63
2023/10/19 12:03:51;;;;;;;6.07;2.13;;;18.20;99.90;;;;;;4987594;28;20695;-65
2023/10/19 12:06:19;;;;;;;7.80;2.67;;;18.20;99.90;;;;;;4988745;28;20442;-65
2023/10/19 12:08:45;;;;;;;6.67;2.70;;;18.20;99.90;;;;;;4987858;28;20458;-64
2023/10/19 12:11:22;;;;;;;3.37;2.00;;;18.10;99.90;;;;;;4988106;28;20438;-64
2023/10/19 12:13:47;;;;;;;4.53;2.60;;;18.20;99.90;;;;;;4987964;28;20476;-64
2023/10/19 12:16:15;;;;;;;3.63;2.10;;;18.10;99.90;;;;;;4988938;28;20518;-64
2023/10/19 12:18:42;;;;;;;4.80;2.10;;;18.10;99.90;;;;;;4988661;28;20183;-64
2023/10/19 12:21:11;;;;;;;3.87;1.87;;;18.20;99.90;;;;;;4987566;28;20478;-64
2023/10/19 12:23:43;;;;;;;4.60;1.87;;;18.10;99.90;;;;;;4987444;28;20479;-63
2023/10/19 12:26:12;;;;;;;5.20;2.13;;;18.10;99.90;;;;;;4987885;28;20476;-64
2023/10/19 12:28:38;;;;;;;3.93;2.17;;;18.10;99.90;;;;;;4988447;28;20443;-64
2023/10/19 12:31:05;;;;;;;5.43;2.07;;;18.00;99.90;;;;;;4987563;28;20427;-64
2023/10/19 12:33:31;;;;;;;3.27;1.80;;;18.00;99.90;;;;;;4988794;28;20458;-64
2023/10/19 12:35:57;;;;;;;4.37;1.50;;;17.90;99.90;;;;;;4988070;28;20566;-64
2023/10/19 12:38:23;;;;;;;3.83;1.67;;;17.90;99.90;;;;;;4988938;28;20609;-64
2023/10/19 12:40:54;;;;;;;4.43;2.60;;;17.80;99.90;;;;;;4987226;28;20903;-64
2023/10/19 12:43:23;;;;;;;7.50;2.40;;;17.80;99.90;;;;;;4988674;28;20498;-64
2023/10/19 12:45:58;;;;;;;7.40;2.20;;;17.80;99.90;;;;;;4987832;28;20430;-64
2023/10/19 12:48:30;;;;;;;4.90;1.80;;;17.80;99.90;;;;;;4988570;28;20426;-64
2023/10/19 12:50:56;;;;;;;3.23;1.90;;;17.80;99.90;;;;;;4987354;28;20513;-64
2023/10/19 12:53:24;;;;;;;3.80;1.80;;;17.70;99.90;;;;;;4988315;28;20532;-64
2023/10/19 12:55:51;;;;;;;5.53;2.17;;;17.70;99.90;;;;;;4986925;28;20187;-64
2023/10/19 12:58:19;;;;;;;4.37;1.60;;;17.60;99.90;;;;;;4988203;28;20433;-64
2023/10/19 13:00:46;;;;;;;3.87;2.20;;;17.60;99.90;;;;;;4988811;28;20481;-64
2023/10/19 13:03:16;;;;;;;3.77;1.83;;;17.60;99.90;;;;;;4991798;28;20480;-64
2023/10/19 13:05:44;;;;;;;7.97;2.20;;;17.60;99.90;;;;;;4991399;28;20928;-64
2023/10/19 13:08:13;;;;;;;7.40;2.20;;;17.50;99.90;;;;;;4991056;28;20430;-63
2023/10/19 13:10:41;;;;;;;3.37;1.70;;;17.50;99.90;;;;;;4990657;28;21302;-64
2023/10/19 13:13:11;;;;;;;5.63;2.50;;;17.50;99.90;;;;;;4991189;28;20431;-64
2023/10/19 13:15:38;;;;;;;8.77;2.10;;;17.40;99.90;;;;;;4991028;28;20431;-64
2023/10/19 13:18:12;;;;;;;6.00;1.90;;;17.40;99.90;;;;;;4991544;28;20857;-64
2023/10/19 13:20:40;;;;;;;4.30;1.93;;;17.40;99.90;;;;;;4997618;28;20553;-64
2023/10/19 13:23:15;;;;;;;4.00;1.70;;;17.30;99.90;;;;;;4990412;28;20461;-64